sensor_id;sensor_type;location;lat;lon;timestamp;P1;durP1;ratioP1;P2;durP2;ratioP2
29196;SDS011;62796;42.654;23.316;2024-03-07T00:01:44;28.67;;;20.60;;
29196;SDS011;62796;42.654;23.316;2024-03-07T00:04:10;29.35;;;21.50;;
29196;SDS011;62796;42.654;23.316;2024-03-07T00:06:35;29.15;;;21.25;;
29196;SDS011;62796;42.654;23.316;2024-03-07T00:09:01;30.85;;;21.23;;
29196;SDS011;62796;42.654;23.316;2024-03-07T00:11:27;28.90;;;20.75;;
29196;SDS011;62796;42.654;23.316;2024-03-07T00:13:53;27.88;;;21.73;;
29196;SDS011;62796;42.654;23.316;2024-03-07T00:16:19;31.70;;;21.52;;
29196;SDS011;62796;42.654;23.316;2024-03-07T00:18:45;31.27;;;24.15;;
29196;SDS011;62796;42.654;23.316;2024-03-07T00:21:11;29.65;;;21.27;;
29196;SDS011;62796;42.654;23.316;2024-03-07T00:23:36;29.95;;;21.35;;
29196;SDS011;62796;42.654;23.316;2024-03-07T00:26:02;28.88;;;21.40;;
29196;SDS011;62796;42.654;23.316;2024-03-07T00:28:28;30.33;;;22.13;;
29196;SDS011;62796;42.654;23.316;2024-03-07T00:30:57;30.02;;;23.13;;
29196;SDS011;62796;42.654;23.316;2024-03-07T00:33:23;36.05;;;25.25;;
29196;SDS011;62796;42.654;23.316;2024-03-07T00:35:50;32.08;;;23.83;;
29196;SDS011;62796;42.654;23.316;2024-03-07T00:38:15;29.45;;;20.92;;
29196;SDS011;62796;42.654;23.316;2024-03-07T00:40:41;27.98;;;20.15;;
29196;SDS011;62796;42.654;23.316;2024-03-07T00:43:06;30.33;;;21.17;;
29196;SDS011;62796;42.654;23.316;2024-03-07T00:45:31;28.40;;;21.17;;
29196;SDS011;62796;42.654;23.316;2024-03-07T00:47:57;26.75;;;20.50;;
29196;SDS011;62796;42.654;23.316;2024-03-07T00:50:23;29.00;;;20.00;;
29196;SDS011;62796;42.654;23.316;2024-03-07T00:52:50;23.92;;;18.17;;
29196;SDS011;62796;42.654;23.316;2024-03-07T00:55:15;27.33;;;19.90;;
29196;SDS011;62796;42.654;23.316;2024-03-07T00:57:41;24.30;;;17.42;;
29196;SDS011;62796;42.654;23.316;2024-03-07T01:00:07;20.83;;;17.33;;
29196;SDS011;62796;42.654;23.316;2024-03-07T01:02:41;24.25;;;18.02;;
29196;SDS011;62796;42.654;23.316;2024-03-07T01:05:09;23.92;;;17.35;;
29196;SDS011;62796;42.654;23.316;2024-03-07T01:07:38;23.20;;;17.38;;
29196;SDS011;62796;42.654;23.316;2024-03-07T01:10:05;22.90;;;17.13;;
29196;SDS011;62796;42.654;23.316;2024-03-07T01:12:31;22.25;;;17.70;;
29196;SDS011;62796;42.654;23.316;2024-03-07T01:14:59;23.15;;;17.63;;
29196;SDS011;62796;42.654;23.316;2024-03-07T01:17:25;25.20;;;17.42;;
29196;SDS011;62796;42.654;23.316;2024-03-07T01:19:51;21.85;;;16.55;;
29196;SDS011;62796;42.654;23.316;2024-03-07T01:22:16;22.60;;;17.50;;
29196;SDS011;62796;42.654;23.316;2024-03-07T01:24:42;22.88;;;17.63;;
29196;SDS011;62796;42.654;23.316;2024-03-07T01:27:08;21.90;;;17.40;;
29196;SDS011;62796;42.654;23.316;2024-03-07T01:29:34;24.25;;;17.58;;
29196;SDS011;62796;42.654;23.316;2024-03-07T01:32:00;24.55;;;18.50;;
29196;SDS011;62796;42.654;23.316;2024-03-07T01:34:25;23.73;;;17.35;;
29196;SDS011;62796;42.654;23.316;2024-03-07T01:36:51;23.65;;;16.33;;
29196;SDS011;62796;42.654;23.316;2024-03-07T01:39:16;20.10;;;15.43;;
29196;SDS011;62796;42.654;23.316;2024-03-07T01:41:43;20.52;;;16.05;;
29196;SDS011;62796;42.654;23.316;2024-03-07T01:44:08;24.10;;;16.73;;
29196;SDS011;62796;42.654;23.316;2024-03-07T01:46:34;23.42;;;15.98;;
29196;SDS011;62796;42.654;23.316;2024-03-07T01:48:59;20.65;;;16.30;;
29196;SDS011;62796;42.654;23.316;2024-03-07T01:51:25;21.88;;;15.80;;
29196;SDS011;62796;42.654;23.316;2024-03-07T01:53:51;23.80;;;16.70;;
29196;SDS011;62796;42.654;23.316;2024-03-07T01:56:17;21.75;;;16.45;;
29196;SDS011;62796;42.654;23.316;2024-03-07T01:58:46;21.85;;;16.75;;
29196;SDS011;62796;42.654;23.316;2024-03-07T02:01:12;18.48;;;13.05;;
29196;SDS011;62796;42.654;23.316;2024-03-07T02:03:40;15.60;;;12.27;;
29196;SDS011;62796;42.654;23.316;2024-03-07T02:06:07;14.07;;;10.95;;
29196;SDS011;62796;42.654;23.316;2024-03-07T02:08:33;14.55;;;11.48;;
29196;SDS011;62796;42.654;23.316;2024-03-07T02:10:59;17.27;;;12.35;;
29196;SDS011;62796;42.654;23.316;2024-03-07T02:13:25;15.18;;;11.32;;
29196;SDS011;62796;42.654;23.316;2024-03-07T02:15:51;15.57;;;11.18;;
29196;SDS011;62796;42.654;23.316;2024-03-07T02:18:17;14.98;;;11.68;;
29196;SDS011;62796;42.654;23.316;2024-03-07T02:20:45;17.88;;;12.50;;
29196;SDS011;62796;42.654;23.316;2024-03-07T02:23:13;11.75;;;9.73;;
29196;SDS011;62796;42.654;23.316;2024-03-07T02:25:39;10.38;;;8.80;;
29196;SDS011;62796;42.654;23.316;2024-03-07T02:28:05;8.85;;;7.28;;
29196;SDS011;62796;42.654;23.316;2024-03-07T02:30:31;4.60;;;3.65;;
29196;SDS011;62796;42.654;23.316;2024-03-07T02:32:57;4.55;;;3.40;;
29196;SDS011;62796;42.654;23.316;2024-03-07T02:38:01;3.35;;;2.42;;
29196;SDS011;62796;42.654;23.316;2024-03-07T02:40:30;3.53;;;2.88;;
29196;SDS011;62796;42.654;23.316;2024-03-07T02:42:56;2.90;;;2.40;;
29196;SDS011;62796;42.654;23.316;2024-03-07T02:45:21;3.13;;;2.50;;
29196;SDS011;62796;42.654;23.316;2024-03-07T02:47:47;2.47;;;2.08;;
29196;SDS011;62796;42.654;23.316;2024-03-07T02:50:13;4.63;;;2.28;;
29196;SDS011;62796;42.654;23.316;2024-03-07T02:52:38;4.85;;;2.22;;
29196;SDS011;62796;42.654;23.316;2024-03-07T02:55:04;3.72;;;2.55;;
29196;SDS011;62796;42.654;23.316;2024-03-07T02:57:30;3.70;;;2.80;;
29196;SDS011;62796;42.654;23.316;2024-03-07T02:59:56;4.38;;;2.83;;
29196;SDS011;62796;42.654;23.316;2024-03-07T03:02:21;3.58;;;3.03;;
29196;SDS011;62796;42.654;23.316;2024-03-07T03:04:47;3.75;;;3.03;;
29196;SDS011;62796;42.654;23.316;2024-03-07T03:07:13;3.78;;;3.03;;
29196;SDS011;62796;42.654;23.316;2024-03-07T03:09:38;5.32;;;3.17;;
29196;SDS011;62796;42.654;23.316;2024-03-07T03:12:08;5.65;;;3.55;;
29196;SDS011;62796;42.654;23.316;2024-03-07T03:14:34;5.05;;;3.63;;
29196;SDS011;62796;42.654;23.316;2024-03-07T03:16:59;4.20;;;3.10;;
29196;SDS011;62796;42.654;23.316;2024-03-07T03:19:25;3.03;;;2.72;;
29196;SDS011;62796;42.654;23.316;2024-03-07T03:21:51;2.88;;;2.00;;
29196;SDS011;62796;42.654;23.316;2024-03-07T03:24:17;4.60;;;2.53;;
29196;SDS011;62796;42.654;23.316;2024-03-07T03:26:43;2.90;;;2.13;;
29196;SDS011;62796;42.654;23.316;2024-03-07T03:29:09;3.20;;;2.30;;
29196;SDS011;62796;42.654;23.316;2024-03-07T03:31:36;2.83;;;2.20;;
29196;SDS011;62796;42.654;23.316;2024-03-07T03:34:02;2.75;;;2.25;;
29196;SDS011;62796;42.654;23.316;2024-03-07T03:36:27;2.50;;;2.00;;
29196;SDS011;62796;42.654;23.316;2024-03-07T03:38:53;2.90;;;1.92;;
29196;SDS011;62796;42.654;23.316;2024-03-07T03:41:18;3.00;;;2.50;;
29196;SDS011;62796;42.654;23.316;2024-03-07T03:43:44;3.72;;;2.55;;
29196;SDS011;62796;42.654;23.316;2024-03-07T03:46:12;2.38;;;2.03;;
29196;SDS011;62796;42.654;23.316;2024-03-07T03:48:40;3.08;;;2.28;;
29196;SDS011;62796;42.654;23.316;2024-03-07T03:51:06;2.97;;;2.40;;
29196;SDS011;62796;42.654;23.316;2024-03-07T03:53:35;2.88;;;2.15;;
29196;SDS011;62796;42.654;23.316;2024-03-07T03:56:01;2.88;;;2.35;;
29196;SDS011;62796;42.654;23.316;2024-03-07T03:58:29;2.53;;;2.20;;
29196;SDS011;62796;42.654;23.316;2024-03-07T04:00:59;3.00;;;2.38;;
29196;SDS011;62796;42.654;23.316;2024-03-07T04:03:25;2.70;;;2.35;;
29196;SDS011;62796;42.654;23.316;2024-03-07T04:05:50;3.80;;;2.13;;
29196;SDS011;62796;42.654;23.316;2024-03-07T04:08:16;2.88;;;2.40;;
29196;SDS011;62796;42.654;23.316;2024-03-07T04:10:41;2.30;;;2.10;;
29196;SDS011;62796;42.654;23.316;2024-03-07T04:13:06;4.38;;;2.72;;
29196;SDS011;62796;42.654;23.316;2024-03-07T04:15:33;4.75;;;3.08;;
29196;SDS011;62796;42.654;23.316;2024-03-07T04:17:58;3.08;;;2.63;;
29196;SDS011;62796;42.654;23.316;2024-03-07T04:20:24;2.83;;;2.17;;
29196;SDS011;62796;42.654;23.316;2024-03-07T04:22:50;3.20;;;2.35;;
29196;SDS011;62796;42.654;23.316;2024-03-07T04:25:16;2.90;;;2.58;;
29196;SDS011;62796;42.654;23.316;2024-03-07T04:27:41;3.80;;;2.50;;
29196;SDS011;62796;42.654;23.316;2024-03-07T04:30:07;2.90;;;2.60;;
29196;SDS011;62796;42.654;23.316;2024-03-07T04:32:35;4.93;;;2.67;;
29196;SDS011;62796;42.654;23.316;2024-03-07T04:35:02;3.45;;;2.85;;
29196;SDS011;62796;42.654;23.316;2024-03-07T04:37:32;3.72;;;3.03;;
29196;SDS011;62796;42.654;23.316;2024-03-07T04:40:02;3.88;;;2.78;;
29196;SDS011;62796;42.654;23.316;2024-03-07T04:42:40;3.72;;;2.80;;
29196;SDS011;62796;42.654;23.316;2024-03-07T04:45:10;4.10;;;3.50;;
29196;SDS011;62796;42.654;23.316;2024-03-07T04:47:38;4.28;;;3.20;;
29196;SDS011;62796;42.654;23.316;2024-03-07T04:50:04;3.65;;;2.72;;
29196;SDS011;62796;42.654;23.316;2024-03-07T04:52:30;3.97;;;2.92;;
29196;SDS011;62796;42.654;23.316;2024-03-07T04:54:55;4.07;;;1.85;;
29196;SDS011;62796;42.654;23.316;2024-03-07T04:57:20;5.82;;;2.50;;
29196;SDS011;62796;42.654;23.316;2024-03-07T04:59:46;23.30;;;10.95;;
29196;SDS011;62796;42.654;23.316;2024-03-07T05:02:11;4.93;;;3.50;;
29196;SDS011;62796;42.654;23.316;2024-03-07T05:04:36;2.30;;;1.92;;
29196;SDS011;62796;42.654;23.316;2024-03-07T05:07:02;2.25;;;1.95;;
29196;SDS011;62796;42.654;23.316;2024-03-07T05:09:28;2.65;;;2.10;;
29196;SDS011;62796;42.654;23.316;2024-03-07T05:11:54;2.92;;;2.50;;
29196;SDS011;62796;42.654;23.316;2024-03-07T05:14:20;5.85;;;3.38;;
29196;SDS011;62796;42.654;23.316;2024-03-07T05:16:47;2.55;;;1.90;;
29196;SDS011;62796;42.654;23.316;2024-03-07T05:19:30;1.98;;;1.77;;
29196;SDS011;62796;42.654;23.316;2024-03-07T05:21:59;1.75;;;1.58;;
29196;SDS011;62796;42.654;23.316;2024-03-07T05:24:25;1.52;;;1.42;;
29196;SDS011;62796;42.654;23.316;2024-03-07T05:26:51;2.78;;;1.70;;
29196;SDS011;62796;42.654;23.316;2024-03-07T05:29:18;1.73;;;1.60;;
29196;SDS011;62796;42.654;23.316;2024-03-07T05:31:43;1.92;;;1.48;;
29196;SDS011;62796;42.654;23.316;2024-03-07T05:34:12;2.50;;;1.73;;
29196;SDS011;62796;42.654;23.316;2024-03-07T05:36:37;1.80;;;1.55;;
29196;SDS011;62796;42.654;23.316;2024-03-07T05:39:11;4.70;;;2.28;;
29196;SDS011;62796;42.654;23.316;2024-03-07T05:41:41;2.58;;;2.03;;
29196;SDS011;62796;42.654;23.316;2024-03-07T05:44:07;2.63;;;1.80;;
29196;SDS011;62796;42.654;23.316;2024-03-07T05:46:37;2.53;;;1.52;;
29196;SDS011;62796;42.654;23.316;2024-03-07T05:49:07;1.77;;;1.38;;
29196;SDS011;62796;42.654;23.316;2024-03-07T05:51:33;1.83;;;1.55;;
29196;SDS011;62796;42.654;23.316;2024-03-07T05:53:58;3.65;;;2.03;;
29196;SDS011;62796;42.654;23.316;2024-03-07T05:56:24;2.08;;;1.58;;
29196;SDS011;62796;42.654;23.316;2024-03-07T05:58:49;2.70;;;1.70;;
29196;SDS011;62796;42.654;23.316;2024-03-07T06:01:16;3.15;;;1.67;;
29196;SDS011;62796;42.654;23.316;2024-03-07T06:03:42;2.80;;;1.95;;
29196;SDS011;62796;42.654;23.316;2024-03-07T06:06:07;3.55;;;1.80;;
29196;SDS011;62796;42.654;23.316;2024-03-07T06:08:36;3.10;;;2.17;;
29196;SDS011;62796;42.654;23.316;2024-03-07T06:11:02;2.42;;;1.80;;
29196;SDS011;62796;42.654;23.316;2024-03-07T06:13:27;5.90;;;3.55;;
29196;SDS011;62796;42.654;23.316;2024-03-07T06:15:53;3.33;;;3.00;;
29196;SDS011;62796;42.654;23.316;2024-03-07T06:18:19;3.60;;;2.00;;
29196;SDS011;62796;42.654;23.316;2024-03-07T06:20:44;2.60;;;2.00;;
29196;SDS011;62796;42.654;23.316;2024-03-07T06:23:09;3.25;;;1.98;;
29196;SDS011;62796;42.654;23.316;2024-03-07T06:25:37;3.58;;;2.22;;
29196;SDS011;62796;42.654;23.316;2024-03-07T06:28:12;3.03;;;2.30;;
29196;SDS011;62796;42.654;23.316;2024-03-07T06:30:39;5.22;;;2.92;;
29196;SDS011;62796;42.654;23.316;2024-03-07T06:33:05;3.42;;;2.30;;
29196;SDS011;62796;42.654;23.316;2024-03-07T06:35:31;3.60;;;2.10;;
29196;SDS011;62796;42.654;23.316;2024-03-07T06:37:57;2.85;;;2.33;;
29196;SDS011;62796;42.654;23.316;2024-03-07T06:40:22;2.20;;;2.00;;
29196;SDS011;62796;42.654;23.316;2024-03-07T06:42:48;2.72;;;2.20;;
29196;SDS011;62796;42.654;23.316;2024-03-07T06:45:14;3.08;;;2.50;;
29196;SDS011;62796;42.654;23.316;2024-03-07T06:47:39;4.45;;;3.03;;
29196;SDS011;62796;42.654;23.316;2024-03-07T06:50:06;10.23;;;5.68;;
29196;SDS011;62796;42.654;23.316;2024-03-07T06:52:34;5.35;;;3.80;;
29196;SDS011;62796;42.654;23.316;2024-03-07T06:55:01;4.63;;;3.38;;
29196;SDS011;62796;42.654;23.316;2024-03-07T06:57:28;14.18;;;8.77;;
29196;SDS011;62796;42.654;23.316;2024-03-07T06:59:54;9.70;;;5.25;;
29196;SDS011;62796;42.654;23.316;2024-03-07T07:02:20;4.53;;;3.55;;
29196;SDS011;62796;42.654;23.316;2024-03-07T07:04:45;3.67;;;3.30;;
29196;SDS011;62796;42.654;23.316;2024-03-07T07:07:12;3.92;;;3.10;;
29196;SDS011;62796;42.654;23.316;2024-03-07T07:09:39;4.43;;;2.90;;
29196;SDS011;62796;42.654;23.316;2024-03-07T07:12:05;4.55;;;3.05;;
29196;SDS011;62796;42.654;23.316;2024-03-07T07:14:31;3.78;;;2.75;;
29196;SDS011;62796;42.654;23.316;2024-03-07T07:16:57;4.85;;;3.50;;
29196;SDS011;62796;42.654;23.316;2024-03-07T07:19:24;4.47;;;3.85;;
29196;SDS011;62796;42.654;23.316;2024-03-07T07:21:49;4.07;;;3.67;;
29196;SDS011;62796;42.654;23.316;2024-03-07T07:24:18;6.82;;;3.72;;
29196;SDS011;62796;42.654;23.316;2024-03-07T07:26:46;4.80;;;3.65;;
29196;SDS011;62796;42.654;23.316;2024-03-07T07:29:12;5.93;;;3.47;;
29196;SDS011;62796;42.654;23.316;2024-03-07T07:31:37;4.90;;;3.45;;
29196;SDS011;62796;42.654;23.316;2024-03-07T07:34:03;5.20;;;3.35;;
29196;SDS011;62796;42.654;23.316;2024-03-07T07:36:29;3.47;;;2.70;;
29196;SDS011;62796;42.654;23.316;2024-03-07T07:38:55;3.20;;;2.75;;
29196;SDS011;62796;42.654;23.316;2024-03-07T07:41:20;3.60;;;2.67;;
29196;SDS011;62796;42.654;23.316;2024-03-07T07:43:46;2.97;;;2.40;;
29196;SDS011;62796;42.654;23.316;2024-03-07T07:46:13;6.63;;;3.17;;
29196;SDS011;62796;42.654;23.316;2024-03-07T07:48:41;4.85;;;3.35;;
29196;SDS011;62796;42.654;23.316;2024-03-07T07:51:06;4.43;;;3.53;;
29196;SDS011;62796;42.654;23.316;2024-03-07T07:53:32;3.70;;;2.80;;
29196;SDS011;62796;42.654;23.316;2024-03-07T07:55:58;4.75;;;3.00;;
29196;SDS011;62796;42.654;23.316;2024-03-07T07:58:23;7.32;;;3.47;;
29196;SDS011;62796;42.654;23.316;2024-03-07T08:00:49;5.38;;;3.30;;
29196;SDS011;62796;42.654;23.316;2024-03-07T08:03:14;5.30;;;3.53;;
29196;SDS011;62796;42.654;23.316;2024-03-07T08:05:42;5.28;;;3.22;;
29196;SDS011;62796;42.654;23.316;2024-03-07T08:08:10;5.40;;;3.20;;
29196;SDS011;62796;42.654;23.316;2024-03-07T08:10:38;3.83;;;2.97;;
29196;SDS011;62796;42.654;23.316;2024-03-07T08:13:05;3.17;;;2.40;;
29196;SDS011;62796;42.654;23.316;2024-03-07T08:15:35;2.80;;;2.10;;
29196;SDS011;62796;42.654;23.316;2024-03-07T08:18:00;4.32;;;2.90;;
29196;SDS011;62796;42.654;23.316;2024-03-07T08:20:26;4.00;;;2.80;;
29196;SDS011;62796;42.654;23.316;2024-03-07T08:22:53;7.07;;;4.30;;
29196;SDS011;62796;42.654;23.316;2024-03-07T08:25:21;8.35;;;5.35;;
29196;SDS011;62796;42.654;23.316;2024-03-07T08:27:51;8.40;;;5.10;;
29196;SDS011;62796;42.654;23.316;2024-03-07T08:30:17;7.15;;;4.47;;
29196;SDS011;62796;42.654;23.316;2024-03-07T08:32:47;5.80;;;4.90;;
29196;SDS011;62796;42.654;23.316;2024-03-07T08:35:13;6.63;;;4.35;;
29196;SDS011;62796;42.654;23.316;2024-03-07T08:37:41;7.40;;;4.88;;
29196;SDS011;62796;42.654;23.316;2024-03-07T08:40:08;6.47;;;4.90;;
29196;SDS011;62796;42.654;23.316;2024-03-07T08:42:38;6.20;;;4.85;;
29196;SDS011;62796;42.654;23.316;2024-03-07T08:45:06;6.30;;;4.97;;
29196;SDS011;62796;42.654;23.316;2024-03-07T08:47:35;8.80;;;5.82;;
29196;SDS011;62796;42.654;23.316;2024-03-07T08:50:02;11.75;;;5.53;;
29196;SDS011;62796;42.654;23.316;2024-03-07T08:52:34;15.57;;;6.20;;
29196;SDS011;62796;42.654;23.316;2024-03-07T08:55:04;12.82;;;7.25;;
29196;SDS011;62796;42.654;23.316;2024-03-07T08:57:31;7.13;;;5.15;;
29196;SDS011;62796;42.654;23.316;2024-03-07T08:59:56;9.20;;;5.50;;
29196;SDS011;62796;42.654;23.316;2024-03-07T09:02:22;6.55;;;4.95;;
29196;SDS011;62796;42.654;23.316;2024-03-07T09:04:48;8.95;;;5.15;;
29196;SDS011;62796;42.654;23.316;2024-03-07T09:07:13;6.75;;;5.30;;
29196;SDS011;62796;42.654;23.316;2024-03-07T09:09:42;9.30;;;5.28;;
29196;SDS011;62796;42.654;23.316;2024-03-07T09:12:08;5.90;;;4.82;;
29196;SDS011;62796;42.654;23.316;2024-03-07T09:14:36;5.65;;;4.35;;
29196;SDS011;62796;42.654;23.316;2024-03-07T09:17:02;5.88;;;5.10;;
29196;SDS011;62796;42.654;23.316;2024-03-07T09:19:29;7.13;;;5.72;;
29196;SDS011;62796;42.654;23.316;2024-03-07T09:21:55;10.20;;;6.43;;
29196;SDS011;62796;42.654;23.316;2024-03-07T09:24:21;10.70;;;7.45;;
29196;SDS011;62796;42.654;23.316;2024-03-07T09:26:49;12.75;;;6.82;;
29196;SDS011;62796;42.654;23.316;2024-03-07T09:29:15;10.05;;;5.97;;
29196;SDS011;62796;42.654;23.316;2024-03-07T09:31:43;7.47;;;4.95;;
29196;SDS011;62796;42.654;23.316;2024-03-07T09:34:08;9.23;;;5.60;;
29196;SDS011;62796;42.654;23.316;2024-03-07T09:36:34;7.55;;;5.53;;
29196;SDS011;62796;42.654;23.316;2024-03-07T09:38:59;8.38;;;5.65;;
29196;SDS011;62796;42.654;23.316;2024-03-07T09:41:25;9.63;;;7.55;;
29196;SDS011;62796;42.654;23.316;2024-03-07T09:43:52;9.60;;;7.30;;
29196;SDS011;62796;42.654;23.316;2024-03-07T09:46:23;11.95;;;8.43;;
29196;SDS011;62796;42.654;23.316;2024-03-07T09:48:50;10.70;;;6.85;;
29196;SDS011;62796;42.654;23.316;2024-03-07T09:51:18;9.13;;;5.28;;
29196;SDS011;62796;42.654;23.316;2024-03-07T09:53:48;10.25;;;6.03;;
29196;SDS011;62796;42.654;23.316;2024-03-07T09:56:17;10.45;;;5.60;;
29196;SDS011;62796;42.654;23.316;2024-03-07T09:58:46;15.45;;;10.27;;
29196;SDS011;62796;42.654;23.316;2024-03-07T10:01:14;13.63;;;6.50;;
29196;SDS011;62796;42.654;23.316;2024-03-07T10:03:43;7.00;;;5.38;;
29196;SDS011;62796;42.654;23.316;2024-03-07T10:06:10;6.85;;;5.63;;
29196;SDS011;62796;42.654;23.316;2024-03-07T10:08:35;9.95;;;6.40;;
29196;SDS011;62796;42.654;23.316;2024-03-07T10:11:01;8.30;;;5.40;;
29196;SDS011;62796;42.654;23.316;2024-03-07T10:13:27;12.27;;;6.25;;
29196;SDS011;62796;42.654;23.316;2024-03-07T10:15:53;7.60;;;5.68;;
29196;SDS011;62796;42.654;23.316;2024-03-07T10:18:25;11.80;;;7.43;;
29196;SDS011;62796;42.654;23.316;2024-03-07T10:20:53;9.70;;;6.22;;
29196;SDS011;62796;42.654;23.316;2024-03-07T10:23:19;9.38;;;6.40;;
29196;SDS011;62796;42.654;23.316;2024-03-07T10:25:46;7.93;;;6.22;;
29196;SDS011;62796;42.654;23.316;2024-03-07T10:28:12;8.25;;;6.43;;
29196;SDS011;62796;42.654;23.316;2024-03-07T10:30:41;9.98;;;7.13;;
29196;SDS011;62796;42.654;23.316;2024-03-07T10:33:09;10.68;;;7.15;;
29196;SDS011;62796;42.654;23.316;2024-03-07T10:35:37;12.07;;;7.05;;
29196;SDS011;62796;42.654;23.316;2024-03-07T10:38:03;10.95;;;6.70;;
29196;SDS011;62796;42.654;23.316;2024-03-07T10:40:32;8.60;;;6.70;;
29196;SDS011;62796;42.654;23.316;2024-03-07T10:42:58;11.48;;;6.60;;
29196;SDS011;62796;42.654;23.316;2024-03-07T10:45:28;12.25;;;7.22;;
29196;SDS011;62796;42.654;23.316;2024-03-07T10:47:55;11.60;;;7.88;;
29196;SDS011;62796;42.654;23.316;2024-03-07T10:58:41;18.70;;;8.13;;
29196;SDS011;62796;42.654;23.316;2024-03-07T11:01:13;7.57;;;5.88;;
29196;SDS011;62796;42.654;23.316;2024-03-07T11:03:39;7.55;;;5.43;;
29196;SDS011;62796;42.654;23.316;2024-03-07T11:06:06;5.70;;;4.60;;
29196;SDS011;62796;42.654;23.316;2024-03-07T11:08:36;5.90;;;4.47;;
29196;SDS011;62796;42.654;23.316;2024-03-07T11:11:02;6.88;;;4.55;;
29196;SDS011;62796;42.654;23.316;2024-03-07T11:13:29;8.35;;;4.22;;
29196;SDS011;62796;42.654;23.316;2024-03-07T11:15:55;5.53;;;3.90;;
29196;SDS011;62796;42.654;23.316;2024-03-07T11:18:24;6.90;;;3.97;;
29196;SDS011;62796;42.654;23.316;2024-03-07T11:20:49;9.52;;;4.53;;
29196;SDS011;62796;42.654;23.316;2024-03-07T11:23:28;7.72;;;4.10;;
29196;SDS011;62796;42.654;23.316;2024-03-07T11:26:00;7.32;;;3.38;;
29196;SDS011;62796;42.654;23.316;2024-03-07T11:28:32;5.13;;;3.70;;
29196;SDS011;62796;42.654;23.316;2024-03-07T11:31:08;5.15;;;3.35;;
29196;SDS011;62796;42.654;23.316;2024-03-07T11:36:46;5.82;;;3.70;;
29196;SDS011;62796;42.654;23.316;2024-03-07T11:44:44;8.13;;;5.13;;
29196;SDS011;62796;42.654;23.316;2024-03-07T11:47:12;5.70;;;4.68;;
29196;SDS011;62796;42.654;23.316;2024-03-07T11:49:37;9.20;;;4.43;;
29196;SDS011;62796;42.654;23.316;2024-03-07T11:52:06;7.90;;;5.10;;
29196;SDS011;62796;42.654;23.316;2024-03-07T11:54:38;8.98;;;5.03;;
29196;SDS011;62796;42.654;23.316;2024-03-07T11:57:11;10.35;;;5.90;;
29196;SDS011;62796;42.654;23.316;2024-03-07T11:59:44;8.87;;;6.17;;
29196;SDS011;62796;42.654;23.316;2024-03-07T12:02:14;7.97;;;5.35;;
29196;SDS011;62796;42.654;23.316;2024-03-07T12:04:46;7.25;;;4.60;;
29196;SDS011;62796;42.654;23.316;2024-03-07T12:07:12;7.63;;;4.40;;
29196;SDS011;62796;42.654;23.316;2024-03-07T12:09:38;8.30;;;4.40;;
29196;SDS011;62796;42.654;23.316;2024-03-07T12:12:04;6.45;;;4.63;;
29196;SDS011;62796;42.654;23.316;2024-03-07T12:14:34;5.65;;;4.10;;
29196;SDS011;62796;42.654;23.316;2024-03-07T12:17:02;7.30;;;4.30;;
29196;SDS011;62796;42.654;23.316;2024-03-07T12:19:29;5.25;;;4.40;;
29196;SDS011;62796;42.654;23.316;2024-03-07T12:21:59;5.70;;;4.72;;
29196;SDS011;62796;42.654;23.316;2024-03-07T12:24:26;4.70;;;3.53;;
29196;SDS011;62796;42.654;23.316;2024-03-07T12:26:51;4.82;;;3.42;;
29196;SDS011;62796;42.654;23.316;2024-03-07T12:29:16;3.95;;;3.50;;
29196;SDS011;62796;42.654;23.316;2024-03-07T12:31:42;7.80;;;3.58;;
29196;SDS011;62796;42.654;23.316;2024-03-07T12:34:07;5.07;;;3.72;;
29196;SDS011;62796;42.654;23.316;2024-03-07T12:36:37;5.22;;;4.25;;
29196;SDS011;62796;42.654;23.316;2024-03-07T12:39:24;5.40;;;4.03;;
29196;SDS011;62796;42.654;23.316;2024-03-07T12:41:51;9.45;;;5.68;;
29196;SDS011;62796;42.654;23.316;2024-03-07T12:44:27;5.45;;;4.00;;
29196;SDS011;62796;42.654;23.316;2024-03-07T12:46:53;10.48;;;4.22;;
29196;SDS011;62796;42.654;23.316;2024-03-07T12:49:22;7.13;;;4.28;;
29196;SDS011;62796;42.654;23.316;2024-03-07T12:51:55;10.43;;;4.45;;
29196;SDS011;62796;42.654;23.316;2024-03-07T12:54:21;4.78;;;3.92;;
29196;SDS011;62796;42.654;23.316;2024-03-07T12:56:47;9.77;;;5.93;;
29196;SDS011;62796;42.654;23.316;2024-03-07T12:59:15;9.20;;;5.63;;
29196;SDS011;62796;42.654;23.316;2024-03-07T13:01:40;12.43;;;6.53;;
29196;SDS011;62796;42.654;23.316;2024-03-07T13:04:10;13.13;;;7.28;;
29196;SDS011;62796;42.654;23.316;2024-03-07T13:06:36;13.15;;;7.38;;
29196;SDS011;62796;42.654;23.316;2024-03-07T13:09:01;12.63;;;8.07;;
29196;SDS011;62796;42.654;23.316;2024-03-07T13:11:28;11.20;;;7.32;;
29196;SDS011;62796;42.654;23.316;2024-03-07T13:13:57;12.60;;;8.10;;
29196;SDS011;62796;42.654;23.316;2024-03-07T13:16:23;13.20;;;7.40;;
29196;SDS011;62796;42.654;23.316;2024-03-07T13:18:55;13.38;;;7.47;;
29196;SDS011;62796;42.654;23.316;2024-03-07T13:21:21;12.98;;;7.72;;
29196;SDS011;62796;42.654;23.316;2024-03-07T13:23:47;11.60;;;8.05;;
29196;SDS011;62796;42.654;23.316;2024-03-07T13:26:12;12.23;;;7.63;;
29196;SDS011;62796;42.654;23.316;2024-03-07T13:28:45;16.15;;;8.27;;
29196;SDS011;62796;42.654;23.316;2024-03-07T13:31:11;12.45;;;8.40;;
29196;SDS011;62796;42.654;23.316;2024-03-07T13:33:37;14.95;;;8.85;;
29196;SDS011;62796;42.654;23.316;2024-03-07T13:36:02;17.52;;;7.55;;
29196;SDS011;62796;42.654;23.316;2024-03-07T13:38:29;9.75;;;5.05;;
29196;SDS011;62796;42.654;23.316;2024-03-07T13:40:55;9.55;;;3.75;;
29196;SDS011;62796;42.654;23.316;2024-03-07T13:43:22;10.95;;;4.68;;
29196;SDS011;62796;42.654;23.316;2024-03-07T13:45:48;4.88;;;3.97;;
29196;SDS011;62796;42.654;23.316;2024-03-07T13:48:13;4.95;;;2.80;;
29196;SDS011;62796;42.654;23.316;2024-03-07T13:50:42;5.45;;;3.30;;
29196;SDS011;62796;42.654;23.316;2024-03-07T13:53:11;14.05;;;5.47;;
29196;SDS011;62796;42.654;23.316;2024-03-07T13:55:54;11.93;;;4.88;;
29196;SDS011;62796;42.654;23.316;2024-03-07T14:04:01;11.65;;;6.63;;
29196;SDS011;62796;42.654;23.316;2024-03-07T14:09:19;11.07;;;6.45;;
29196;SDS011;62796;42.654;23.316;2024-03-07T14:29:59;12.88;;;7.40;;
29196;SDS011;62796;42.654;23.316;2024-03-07T14:32:36;11.95;;;6.43;;
29196;SDS011;62796;42.654;23.316;2024-03-07T14:40:50;11.27;;;7.35;;
29196;SDS011;62796;42.654;23.316;2024-03-07T14:43:18;10.77;;;6.82;;
29196;SDS011;62796;42.654;23.316;2024-03-07T14:45:45;10.43;;;6.30;;
29196;SDS011;62796;42.654;23.316;2024-03-07T14:48:12;9.77;;;6.38;;
29196;SDS011;62796;42.654;23.316;2024-03-07T14:50:40;9.93;;;6.85;;
29196;SDS011;62796;42.654;23.316;2024-03-07T14:53:07;14.63;;;8.98;;
29196;SDS011;62796;42.654;23.316;2024-03-07T14:55:33;19.45;;;10.43;;
29196;SDS011;62796;42.654;23.316;2024-03-07T14:58:00;15.85;;;10.23;;
29196;SDS011;62796;42.654;23.316;2024-03-07T15:00:26;13.93;;;8.73;;
29196;SDS011;62796;42.654;23.316;2024-03-07T15:02:52;16.27;;;10.13;;
29196;SDS011;62796;42.654;23.316;2024-03-07T15:05:23;15.23;;;10.55;;
29196;SDS011;62796;42.654;23.316;2024-03-07T15:07:49;15.65;;;10.82;;
29196;SDS011;62796;42.654;23.316;2024-03-07T15:10:30;16.13;;;10.15;;
29196;SDS011;62796;42.654;23.316;2024-03-07T15:12:58;17.30;;;10.73;;
29196;SDS011;62796;42.654;23.316;2024-03-07T15:15:24;15.10;;;9.75;;
29196;SDS011;62796;42.654;23.316;2024-03-07T15:17:53;15.52;;;10.27;;
29196;SDS011;62796;42.654;23.316;2024-03-07T15:20:18;15.93;;;10.20;;